Accueil
METAR-TAF:

METAR-TAF

Aéroports :

Base aérienne 709 Cognac-Châteaubernard

Cognac, France

latitude: 45-40N, longitude: 000-19W, altitude: 30 m

Observation

Le bulletin a été fait il y a 15 minutes, à 21:30 UTC
Vent 4 kt de nord/nord-ouest
Température 7°C
Humidité 61%
Pression 1023 hPa
Visibilité 10 km ou plus
pas de nuages en-dessous de 1500 mètres et pas de cumulonimbus.

METAR: LFBG 222130Z AUTO 33004KT CAVOK 07/00 Q1023 NOSIG

Heure: 23:45 (21:45 UTC)

Prévision

Le bulletin a été fait il y a 1 heure et 45 minutes, à 20:00 UTC
Prévision valable du 22 à 21 UTC au 23 à 21 UTC
Vent 3 kt de direction variable
Visibilité 10 km ou plus
pas de nuages en-dessous de 1500 mètres et pas de cumulonimbus.
Evoluant progressivement
du 23 à 10 UTC au 23 à 12 UTC
Vent 12 kt de nord/nord-est

TAF: LFBG 222000Z 2221/2321 VRB03KT CAVOK BECMG 2310/2312 02012KT

Observations et prévisions météorologiques de plus de 4000 aéroports (messages METAR et TAF).

Les stations disponibles sont représentées par des disques jaunes et rouges sur la carte.

Passer la souris dessus pour voir le nom de la station.

Cliquer dessus pour voir les observations et prévisions météorologiques.

Pour changer de carte: cliquez sur les boutons verts avec une croix noire pour zoomer, sur le bouton vert avec un tiret pour effectuer un zoom arrière, ou sur les flèches vertes pour les cartes adjacentes.


METAR-TAF: